createdAt,value
2023-04-15T00:02:20.813Z,98840.09
2023-04-15T00:04:50.171Z,98843.69
2023-04-15T00:07:18.054Z,98843.00
2023-04-15T00:09:46.083Z,98838.75
2023-04-15T00:12:13.740Z,98831.06
2023-04-15T00:14:41.642Z,98835.91
2023-04-15T00:17:09.322Z,98839.78
2023-04-15T00:19:37.008Z,98832.25
2023-04-15T00:22:06.202Z,98832.31
2023-04-15T00:24:34.485Z,98826.84
2023-04-15T00:27:02.208Z,98823.63
2023-04-15T00:29:30.509Z,98822.81
2023-04-15T00:31:58.302Z,98818.31
2023-04-15T00:34:26.077Z,98824.81
2023-04-15T00:36:53.748Z,98823.84
2023-04-15T00:39:23.939Z,98817.66
2023-04-15T00:41:51.739Z,98807.63
2023-04-15T00:44:20.105Z,98819.94
2023-04-15T00:46:48.688Z,98812.78
2023-04-15T00:49:16.365Z,98817.47
2023-04-15T00:51:44.789Z,98813.44
2023-04-15T00:54:12.930Z,98810.28
2023-04-15T00:56:42.014Z,98810.75
2023-04-15T00:59:10.422Z,98815.97
2023-04-15T01:01:38.971Z,98819.31
2023-04-15T01:04:06.943Z,98820.13
2023-04-15T01:06:34.949Z,98818.47
2023-04-15T01:09:03.438Z,98815.44
2023-04-15T01:11:33.461Z,98812.28
2023-04-15T01:14:02.853Z,98816.31
2023-04-15T01:16:30.693Z,98810.31
2023-04-15T01:18:58.719Z,98817.16
2023-04-15T01:21:26.856Z,98811.66
2023-04-15T01:23:56.922Z,98805.94
2023-04-15T01:26:26.702Z,98810.59
2023-04-15T01:28:54.585Z,98811.75
2023-04-15T01:31:22.923Z,98809.97
2023-04-15T01:33:50.667Z,98821.09
2023-04-15T01:36:18.625Z,98820.28
2023-04-15T01:38:46.413Z,98821.38
2023-04-15T01:41:14.848Z,98819.19
2023-04-15T01:43:43.878Z,98822.78
2023-04-15T01:46:11.888Z,98822.78
2023-04-15T01:48:39.617Z,98826.06
2023-04-15T01:51:08.061Z,98828.78
2023-04-15T01:53:35.778Z,98824.69
2023-04-15T01:56:03.492Z,98826.41
2023-04-15T01:58:31.446Z,98820.78
2023-04-15T02:01:00.680Z,98824.47
2023-04-15T02:03:29.899Z,98820.09
2023-04-15T02:05:57.751Z,98825.31
2023-04-15T02:08:25.364Z,98820.91
2023-04-15T02:10:53.446Z,98831.78
2023-04-15T02:13:21.116Z,98830.81
2023-04-15T02:15:49.702Z,98833.44
2023-04-15T02:18:18.739Z,98832.22
2023-04-15T02:20:47.166Z,98831.28
2023-04-15T02:23:15.786Z,98829.34
2023-04-15T02:25:43.549Z,98833.72
2023-04-15T02:28:21.807Z,98835.53
2023-04-15T02:30:50.927Z,98833.50
2023-04-15T02:33:20.207Z,98834.19
2023-04-15T02:35:47.942Z,98832.66
2023-04-15T02:38:17.892Z,98828.69
2023-04-15T02:40:45.521Z,98829.78
2023-04-15T02:43:13.465Z,98835.28
2023-04-15T02:45:41.296Z,98830.47
2023-04-15T02:48:08.936Z,98832.00
2023-04-15T02:50:39.848Z,98835.84
2023-04-15T02:53:07.806Z,98835.84
2023-04-15T02:55:35.934Z,98833.09
2023-04-15T02:58:03.702Z,98842.47
2023-04-15T03:00:31.564Z,98834.75
2023-04-15T03:03:00.458Z,98839.03
2023-04-15T03:05:28.714Z,98835.03
2023-04-15T03:07:57.820Z,98833.66
2023-04-15T03:10:25.507Z,98838.06
2023-04-15T03:12:53.289Z,98836.28
2023-04-15T03:15:21.457Z,98837.78
2023-04-15T03:17:49.711Z,98841.09
2023-04-15T03:20:17.725Z,98850.94
2023-04-15T03:22:45.392Z,98840.25
2023-04-15T03:25:14.332Z,98842.31
2023-04-15T03:27:43.102Z,98843.41
2023-04-15T03:30:12.322Z,98840.94
2023-04-15T03:32:40.149Z,98831.88
2023-04-15T03:35:08.325Z,98829.00
2023-04-15T03:37:36.031Z,98828.72
2023-04-15T03:40:03.886Z,98835.84
2023-04-15T03:42:32.896Z,98840.00
2023-04-15T03:45:00.656Z,98834.19
2023-04-15T03:47:28.340Z,98840.25
2023-04-15T03:49:55.974Z,98838.34
2023-04-15T03:52:23.603Z,98839.00
2023-04-15T03:54:51.518Z,98850.81
2023-04-15T03:57:19.217Z,98846.53
2023-04-15T03:59:48.440Z,98849.03
2023-04-15T04:02:16.321Z,98839.97
2023-04-15T04:04:44.346Z,98835.69
2023-04-15T04:07:16.718Z,98840.25
2023-04-15T04:09:46.155Z,98847.53
2023-04-15T04:12:14.709Z,98840.78
2023-04-15T04:14:42.365Z,98839.25
2023-04-15T04:17:11.688Z,98841.34
2023-04-15T04:19:39.598Z,98838.84
2023-04-15T04:22:07.326Z,98839.94
2023-04-15T04:24:34.925Z,98839.69
2023-04-15T04:27:02.574Z,98837.06
2023-04-15T04:29:30.215Z,98841.34
2023-04-15T04:31:57.867Z,98846.94
2023-04-15T04:34:26.893Z,98847.09
2023-04-15T04:36:54.766Z,98843.09
2023-04-15T04:39:22.647Z,98842.41
2023-04-15T04:41:52.206Z,98843.66
2023-04-15T04:44:20.004Z,98842.81
2023-04-15T04:46:47.731Z,98849.53
2023-04-15T04:49:15.727Z,98843.13
2023-04-15T04:51:45.336Z,98853.94
2023-04-15T04:54:13.055Z,98850.66
2023-04-15T04:56:40.976Z,98849.81
2023-04-15T04:59:09.403Z,98845.72
2023-04-15T05:01:37.249Z,98852.59
2023-04-15T05:04:05.588Z,98846.25
2023-04-15T05:06:33.689Z,98857.81
2023-04-15T05:09:03.407Z,98856.56
2023-04-15T05:11:31.382Z,98855.63
2023-04-15T05:13:59.709Z,98858.25
2023-04-15T05:16:27.336Z,98859.19
2023-04-15T05:18:54.977Z,98861.38
2023-04-15T05:21:22.707Z,98868.66
2023-04-15T05:23:50.468Z,98865.53
2023-04-15T05:26:19.676Z,98859.47
2023-04-15T05:28:47.948Z,98866.06
2023-04-15T05:31:15.683Z,98874.06
2023-04-15T05:33:43.462Z,98873.78
2023-04-15T05:36:12.200Z,98869.22
2023-04-15T05:38:39.988Z,98877.25
2023-04-15T05:41:07.678Z,98881.66
2023-04-15T05:43:36.670Z,98874.72
2023-04-15T05:46:06.656Z,98879.81
2023-04-15T05:48:36.145Z,98890.19
2023-04-15T05:51:04.013Z,98889.66
2023-04-15T05:53:31.873Z,98888.69
2023-04-15T05:55:59.633Z,98886.81
2023-04-15T05:58:27.620Z,98887.25
2023-04-15T06:00:56.806Z,98889.81
2023-04-15T06:03:24.626Z,98883.47
2023-04-15T06:05:52.548Z,98881.91
2023-04-15T06:08:20.662Z,98885.06
2023-04-15T06:10:48.470Z,98879.84
2023-04-15T06:13:17.190Z,98887.16
2023-04-15T06:15:44.972Z,98876.81
2023-04-15T06:18:14.032Z,98884.22
2023-04-15T06:20:41.741Z,98884.41
2023-04-15T06:23:09.356Z,98883.56
2023-04-15T06:25:37.277Z,98896.75
2023-04-15T06:28:05.412Z,98887.00
2023-04-15T06:30:33.157Z,98892.16
2023-04-15T06:33:00.863Z,98888.25
2023-04-15T06:35:29.900Z,98877.91
2023-04-15T06:37:57.613Z,98878.25
2023-04-15T06:40:25.425Z,98882.72
2023-04-15T06:42:53.143Z,98891.22
2023-04-15T06:45:20.755Z,98886.34
2023-04-15T06:47:48.459Z,98883.84
2023-04-15T06:50:16.252Z,98891.59
2023-04-15T06:52:45.286Z,98894.00
2023-04-15T06:55:13.199Z,98888.09
2023-04-15T06:57:41.194Z,98887.75
2023-04-15T07:00:11.502Z,98884.69
2023-04-15T07:02:39.511Z,98878.22
2023-04-15T07:05:08.513Z,98882.19
2023-04-15T07:07:36.140Z,98874.06
2023-04-15T07:10:06.034Z,98878.09
2023-04-15T07:12:33.720Z,98875.22
2023-04-15T07:15:01.513Z,98868.53
2023-04-15T07:17:29.438Z,98870.47
2023-04-15T07:19:57.095Z,98867.50
2023-04-15T07:22:24.973Z,98863.25
2023-04-15T07:24:52.685Z,98862.50
2023-04-15T07:27:21.777Z,98861.97
2023-04-15T07:29:51.473Z,98860.97
2023-04-15T07:32:19.270Z,98859.00
2023-04-15T07:34:47.057Z,98862.25
2023-04-15T07:37:15.071Z,98860.56
2023-04-15T07:39:42.795Z,98868.53
2023-04-15T07:42:11.269Z,98861.97
2023-04-15T07:44:40.479Z,98868.84
2023-04-15T07:47:08.116Z,98872.75
2023-04-15T07:49:36.430Z,98865.28
2023-04-15T07:52:04.756Z,98874.22
2023-04-15T07:54:32.482Z,98874.56
2023-04-15T07:57:00.157Z,98870.75
2023-04-15T07:59:30.068Z,98863.66
2023-04-15T08:01:59.397Z,98872.22
2023-04-15T08:04:27.678Z,98874.44
2023-04-15T08:06:55.557Z,98872.56
2023-04-15T08:09:23.434Z,98879.41
2023-04-15T08:11:51.451Z,98880.44
2023-04-15T08:14:19.423Z,98879.06
2023-04-15T08:16:47.041Z,98881.13
2023-04-15T08:19:16.093Z,98892.47
2023-04-15T08:21:43.787Z,98886.84
2023-04-15T08:24:11.574Z,98891.66
2023-04-15T08:26:39.540Z,98900.72
2023-04-15T08:29:07.392Z,98897.59
2023-04-15T08:31:35.237Z,98900.97
2023-04-15T08:34:03.612Z,98906.53
2023-04-15T08:36:32.972Z,98907.50
2023-04-15T08:39:02.208Z,98908.53
2023-04-15T08:41:35.907Z,98912.13
2023-04-15T08:44:06.169Z,98916.81
2023-04-15T08:46:34.907Z,98912.13
2023-04-15T08:49:05.856Z,98917.00
2023-04-15T08:51:35.009Z,98929.22
2023-04-15T08:54:03.534Z,98927.72
2023-04-15T08:56:33.145Z,98929.34
2023-04-15T08:59:01.530Z,98934.63
2023-04-15T09:01:30.280Z,98926.09
2023-04-15T09:03:59.939Z,98926.72
2023-04-15T09:06:27.747Z,98938.16
2023-04-15T09:08:57.486Z,98937.16
2023-04-15T09:11:25.048Z,98945.09
2023-04-15T09:13:52.689Z,98942.88
2023-04-15T09:16:20.432Z,98943.28
2023-04-15T09:18:48.091Z,98940.75
2023-04-15T09:21:17.431Z,98945.69
2023-04-15T09:23:57.858Z,98950.22
2023-04-15T09:26:33.187Z,98953.47
2023-04-15T09:29:06.695Z,98954.75
2023-04-15T09:31:34.453Z,98957.78
2023-04-15T09:34:02.828Z,98956.59
2023-04-15T09:36:30.880Z,98962.47
2023-04-15T09:39:01.142Z,98957.03
2023-04-15T09:41:29.497Z,98963.75
2023-04-15T09:43:57.179Z,98964.81
2023-04-15T09:46:43.012Z,98963.25
2023-04-15T09:49:11.770Z,98970.16
2023-04-15T09:51:39.635Z,98974.34
2023-04-15T09:54:08.837Z,98972.03
2023-04-15T09:56:37.932Z,98973.53
2023-04-15T09:59:06.949Z,98983.25
2023-04-15T10:01:34.976Z,98973.72
2023-04-15T10:04:05.318Z,98966.56
2023-04-15T10:06:33.700Z,98971.31
2023-04-15T10:09:02.161Z,98969.19
2023-04-15T10:11:31.904Z,98976.47
2023-04-15T10:14:00.086Z,98973.72
2023-04-15T10:16:29.632Z,98981.63
2023-04-15T10:18:58.568Z,98976.78
2023-04-15T10:21:26.278Z,98977.63
2023-04-15T10:23:54.472Z,98982.06
2023-04-15T10:26:22.791Z,98976.38
2023-04-15T10:28:53.512Z,98977.19
2023-04-15T10:31:22.050Z,98978.22
2023-04-15T10:33:50.752Z,98980.91
2023-04-15T10:36:20.637Z,98976.22
2023-04-15T10:38:48.340Z,98983.94
2023-04-15T10:41:21.551Z,98988.66
2023-04-15T10:43:53.538Z,98979.72
2023-04-15T10:46:23.898Z,98986.16
2023-04-15T10:48:53.122Z,98985.06
2023-04-15T10:51:32.323Z,98987.22
2023-04-15T10:54:01.159Z,98986.34
2023-04-15T10:56:30.944Z,98987.63
2023-04-15T10:59:02.324Z,98987.13
2023-04-15T11:01:56.601Z,98989.28
2023-04-15T11:04:58.109Z,98983.13
2023-04-15T11:07:39.967Z,98987.19
2023-04-15T11:10:49.173Z,98990.31
2023-04-15T11:13:18.912Z,98986.50
2023-04-15T11:15:51.974Z,98992.06
2023-04-15T11:18:22.083Z,98998.50
2023-04-15T11:20:52.218Z,98995.56
2023-04-15T11:23:21.269Z,98995.78
2023-04-15T11:25:49.466Z,98997.00
2023-04-15T11:28:17.324Z,99007.50
2023-04-15T11:30:45.371Z,99004.56
2023-04-15T11:33:14.626Z,99002.47
2023-04-15T11:35:42.691Z,98999.97
2023-04-15T11:38:11.897Z,98994.56
2023-04-15T11:40:40.966Z,99004.16
2023-04-15T11:43:09.892Z,98997.63
2023-04-15T11:45:38.586Z,98992.31
2023-04-15T11:48:07.858Z,99005.06
2023-04-15T11:50:38.230Z,99000.13
2023-04-15T11:53:08.653Z,99006.22
2023-04-15T11:55:44.703Z,99005.69
2023-04-15T11:58:15.640Z,99006.50
2023-04-15T12:00:48.904Z,99010.41
2023-04-15T12:03:20.800Z,99008.38
2023-04-15T12:06:07.916Z,99012.03
2023-04-15T12:09:00.375Z,99022.97
2023-04-15T12:11:37.073Z,99027.13
2023-04-15T12:14:07.778Z,99024.34
2023-04-15T12:16:47.978Z,99036.94
2023-04-15T12:19:19.900Z,99024.53
2023-04-15T12:21:51.429Z,99029.91
2023-04-15T12:24:22.169Z,99041.19
2023-04-15T12:26:51.747Z,99052.03
2023-04-15T12:29:19.410Z,99050.44
2023-04-15T12:31:51.749Z,99054.97
2023-04-15T12:34:21.046Z,99046.53
2023-04-15T12:36:50.104Z,99055.56
2023-04-15T12:39:17.789Z,99058.16
2023-04-15T12:41:45.516Z,99057.28
2023-04-15T12:44:13.921Z,99059.75
2023-04-15T12:46:41.937Z,99067.78
2023-04-15T12:49:10.270Z,99074.50
2023-04-15T12:51:38.017Z,99073.34
2023-04-15T12:54:07.338Z,99078.34
2023-04-15T12:56:35.196Z,99084.81
2023-04-15T12:59:05.611Z,99082.22
2023-04-15T13:01:33.240Z,99088.59
2023-04-15T13:04:00.973Z,99088.78
2023-04-15T13:06:29.156Z,99088.59
2023-04-15T13:08:58.744Z,99088.94
2023-04-15T13:11:30.830Z,99088.75
2023-04-15T13:13:59.041Z,99091.84
2023-04-15T13:16:26.784Z,99098.91
2023-04-15T13:18:54.557Z,99105.22
2023-04-15T13:21:22.310Z,99097.50
2023-04-15T13:23:51.033Z,99107.28
2023-04-15T13:26:18.784Z,99098.50
2023-04-15T13:28:48.085Z,99105.88
2023-04-15T13:31:15.836Z,99107.91
2023-04-15T13:33:43.515Z,99117.25
2023-04-15T13:36:11.456Z,99114.22
2023-04-15T13:38:39.171Z,99119.78
2023-04-15T13:41:07.018Z,99121.44
2023-04-15T13:43:34.676Z,99120.41
2023-04-15T13:46:03.999Z,99127.88
2023-04-15T13:48:31.689Z,99126.56
2023-04-15T13:51:00.654Z,99126.66
2023-04-15T13:53:38.953Z,99126.69
2023-04-15T13:56:07.875Z,99136.66
2023-04-15T13:58:35.743Z,99133.59
2023-04-15T14:01:06.135Z,99138.06
2023-04-15T14:03:35.054Z,99135.38
2023-04-15T14:06:02.969Z,99142.25
2023-04-15T14:08:31.182Z,99144.44
2023-04-15T14:10:59.292Z,99141.00
2023-04-15T14:13:27.185Z,99149.19
2023-04-15T14:15:54.922Z,99152.00
2023-04-15T14:18:24.114Z,99151.31
2023-04-15T14:20:52.408Z,99151.50
2023-04-15T14:23:20.328Z,99151.16
2023-04-15T14:25:48.500Z,99155.84
2023-04-15T14:28:17.170Z,99162.00
2023-04-15T14:30:45.240Z,99160.28
2023-04-15T14:33:13.199Z,99159.53
2023-04-15T14:35:42.261Z,99179.47
2023-04-15T14:38:11.166Z,99175.34
2023-04-15T14:40:39.351Z,99180.03
2023-04-15T14:43:07.262Z,99182.13
2023-04-15T14:45:36.370Z,99181.88
2023-04-15T14:48:04.500Z,99187.03
2023-04-15T14:50:32.324Z,99199.94
2023-04-15T14:53:01.536Z,99205.66
2023-04-15T14:55:29.304Z,99206.84
2023-04-15T14:57:57.255Z,99207.56
2023-04-15T15:00:25.018Z,99220.25
2023-04-15T15:02:52.745Z,99240.94
2023-04-15T15:05:20.789Z,99249.75
2023-04-15T15:07:49.047Z,99268.97
2023-04-15T15:10:32.744Z,99260.56
2023-04-15T15:13:07.024Z,99267.50
2023-04-15T15:15:35.551Z,99271.50
2023-04-15T15:18:03.547Z,99277.97
2023-04-15T15:20:32.900Z,99277.91
2023-04-15T15:23:00.840Z,99284.53
2023-04-15T15:25:30.570Z,99292.28
2023-04-15T15:27:59.252Z,99295.00
2023-04-15T15:30:27.343Z,99290.69
2023-04-15T15:32:55.008Z,99300.03
2023-04-15T15:35:23.676Z,99303.47
2023-04-15T15:37:51.651Z,99307.31
2023-04-15T15:40:19.542Z,99315.53
2023-04-15T15:42:49.902Z,99317.19
2023-04-15T15:45:18.478Z,99329.47
2023-04-15T15:47:46.295Z,99323.78
2023-04-15T15:50:14.872Z,99334.88
2023-04-15T15:52:42.682Z,99340.13
2023-04-15T15:55:12.211Z,99347.88
2023-04-15T15:57:39.940Z,99356.84
2023-04-15T16:00:13.046Z,99356.44
2023-04-15T16:05:12.280Z,99354.91
2023-04-15T16:07:40.076Z,99362.22
2023-04-15T16:10:08.765Z,99358.03
2023-04-15T16:12:36.558Z,99372.31
2023-04-15T16:15:04.831Z,99371.28
2023-04-15T16:17:34.576Z,99380.97
2023-04-15T16:20:05.453Z,99382.06
2023-04-15T16:22:33.624Z,99390.50
2023-04-15T16:25:01.683Z,99390.66
2023-04-15T16:27:29.690Z,99397.63
2023-04-15T16:29:57.391Z,99400.00
2023-04-15T16:32:25.115Z,99399.47
2023-04-15T16:34:55.036Z,99402.28
2023-04-15T16:37:23.175Z,99408.31
2023-04-15T16:39:50.897Z,99400.25
2023-04-15T16:42:18.664Z,99414.25
2023-04-15T16:44:46.516Z,99418.25
2023-04-15T16:47:14.787Z,99420.06
2023-04-15T16:49:42.381Z,99422.63
2023-04-15T16:52:11.458Z,99430.84
2023-04-15T16:54:41.373Z,99432.69
2023-04-15T16:57:09.546Z,99429.88
2023-04-15T16:59:38.848Z,99434.84
2023-04-15T17:02:06.748Z,99444.16
2023-04-15T17:04:34.899Z,99446.34
2023-04-15T17:07:02.991Z,99449.31
2023-04-15T17:09:31.991Z,99453.91
2023-04-15T17:11:59.668Z,99454.63
2023-04-15T17:14:28.606Z,99464.72
2023-04-15T17:16:56.537Z,99465.25
2023-04-15T17:19:24.618Z,99471.09
2023-04-15T17:21:54.795Z,99474.38
2023-04-15T17:24:22.937Z,99478.63
2023-04-15T17:26:52.168Z,99474.03
2023-04-15T17:29:20.074Z,99481.69
2023-04-15T17:31:47.960Z,99484.50
2023-04-15T17:34:16.198Z,99486.25
2023-04-15T17:36:44.526Z,99493.41
2023-04-15T17:39:14.016Z,99497.84
2023-04-15T17:41:41.764Z,99493.78
2023-04-15T17:44:10.808Z,99497.72
2023-04-15T17:46:38.601Z,99491.47
2023-04-15T17:49:07.002Z,99503.38
2023-04-15T17:51:34.945Z,99510.03
2023-04-15T17:54:03.055Z,99510.03
2023-04-15T17:56:31.036Z,99507.69
2023-04-15T17:59:00.795Z,99508.88
2023-04-15T18:01:29.976Z,99517.22
2023-04-15T18:03:57.762Z,99520.44
2023-04-15T18:06:27.178Z,99524.63
2023-04-15T18:08:56.076Z,99523.25
2023-04-15T18:11:23.743Z,99526.72
2023-04-15T18:13:51.380Z,99534.03
2023-04-15T18:16:19.320Z,99543.56
2023-04-15T18:18:49.024Z,99541.13
2023-04-15T18:21:16.841Z,99546.41
2023-04-15T18:23:44.723Z,99544.25
2023-04-15T18:26:13.714Z,99551.69
2023-04-15T18:28:41.449Z,99552.19
2023-04-15T18:31:09.177Z,99560.78
2023-04-15T18:33:36.924Z,99558.81
2023-04-15T18:36:06.241Z,99559.28
2023-04-15T18:38:33.998Z,99571.84
2023-04-15T18:41:03.168Z,99570.03
2023-04-15T18:43:30.862Z,99578.13
2023-04-15T18:45:58.810Z,99580.78
2023-04-15T18:48:26.929Z,99582.09
2023-04-15T18:50:54.913Z,99587.53
2023-04-15T18:53:24.021Z,99586.22
2023-04-15T18:55:51.717Z,99588.19
2023-04-15T18:58:19.743Z,99591.19
2023-04-15T19:00:47.422Z,99592.66
2023-04-15T19:03:15.099Z,99599.94
2023-04-15T19:05:43.160Z,99601.91
2023-04-15T19:08:11.537Z,99603.88
2023-04-15T19:10:40.737Z,99600.91
2023-04-15T19:13:08.403Z,99605.53
2023-04-15T19:15:36.987Z,99608.81
2023-04-15T19:18:10.281Z,99607.66
2023-04-15T19:20:40.117Z,99618.56
2023-04-15T19:23:08.168Z,99616.03
2023-04-15T19:25:35.869Z,99624.34
2023-04-15T19:28:05.473Z,99630.59
2023-04-15T19:30:33.781Z,99631.91
2023-04-15T19:33:01.583Z,99636.53
2023-04-15T19:35:29.434Z,99635.03
2023-04-15T19:37:57.194Z,99634.91
2023-04-15T19:40:24.915Z,99633.09
2023-04-15T19:42:52.886Z,99644.47
2023-04-15T19:45:22.199Z,99638.84
2023-04-15T19:47:50.038Z,99635.53
2023-04-15T19:50:19.323Z,99638.16
2023-04-15T19:52:47.045Z,99653.69
2023-04-15T19:55:15.023Z,99648.38
2023-04-15T19:57:43.418Z,99642.75
2023-04-15T20:00:12.159Z,99658.63
2023-04-15T20:02:41.418Z,99658.97
2023-04-15T20:05:10.490Z,99653.97
2023-04-15T20:07:39.750Z,99659.97
2023-04-15T20:10:08.648Z,99667.53
2023-04-15T20:12:49.545Z,99663.53
2023-04-15T20:15:21.441Z,99661.41
2023-04-15T20:17:51.415Z,99663.19
2023-04-15T20:20:19.541Z,99670.00
2023-04-15T20:22:47.320Z,99672.97
2023-04-15T20:25:15.738Z,99666.84
2023-04-15T20:27:43.615Z,99672.28
2023-04-15T20:30:12.040Z,99671.91
2023-04-15T20:32:39.695Z,99674.09
2023-04-15T20:35:09.321Z,99668.44
2023-04-15T20:37:40.392Z,99673.44
2023-04-15T20:40:09.518Z,99673.63
2023-04-15T20:42:38.158Z,99670.00
2023-04-15T20:45:07.019Z,99677.38
2023-04-15T20:47:34.788Z,99685.50
2023-04-15T20:50:02.655Z,99674.94
2023-04-15T20:52:31.702Z,99681.00
2023-04-15T20:54:59.348Z,99677.38
2023-04-15T20:57:28.647Z,99676.25
2023-04-15T20:59:56.328Z,99677.09
2023-04-15T21:02:24.405Z,99686.97
2023-04-15T21:04:52.215Z,99680.03
2023-04-15T21:07:20.277Z,99682.03
2023-04-15T21:09:49.453Z,99684.81
2023-04-15T21:12:17.200Z,99687.94
2023-04-15T21:14:44.812Z,99695.22
2023-04-15T21:17:12.468Z,99696.06
2023-04-15T21:19:40.356Z,99688.78
2023-04-15T21:22:08.316Z,99697.03
2023-04-15T21:24:36.385Z,99706.81
2023-04-15T21:27:05.807Z,99698.69
2023-04-15T21:29:33.553Z,99703.47
2023-04-15T21:32:01.289Z,99710.78
2023-04-15T21:34:29.123Z,99714.88
2023-04-15T21:36:57.063Z,99707.28
2023-04-15T21:39:24.829Z,99711.06
2023-04-15T21:41:52.716Z,99714.69
2023-04-15T21:44:21.749Z,99704.66
2023-04-15T21:46:49.482Z,99716.03
2023-04-15T21:49:17.296Z,99713.41
2023-04-15T21:51:46.372Z,99728.06
2023-04-15T21:54:14.276Z,99721.31
2023-04-15T21:56:42.678Z,99723.50
2023-04-15T21:59:10.296Z,99731.09
2023-04-15T22:01:39.758Z,99717.06
2023-04-15T22:04:07.876Z,99724.34
2023-04-15T22:06:36.032Z,99716.22
2023-04-15T22:09:04.098Z,99730.22
2023-04-15T22:11:32.340Z,99711.94
2023-04-15T22:14:00.640Z,99729.91
2023-04-15T22:16:29.104Z,99725.44
2023-04-15T22:18:58.291Z,99728.41
2023-04-15T22:21:26.753Z,99732.22
2023-04-15T22:24:32.284Z,99738.19
2023-04-15T22:26:42.579Z,99740.63
2023-04-15T22:29:10.611Z,99736.19
2023-04-15T22:31:38.400Z,99739.16
2023-04-15T22:34:08.548Z,99737.84
2023-04-15T22:36:36.385Z,99753.19
2023-04-15T22:39:04.747Z,99745.72
2023-04-15T22:41:32.836Z,99754.66
2023-04-15T22:44:00.752Z,99766.25
2023-04-15T22:46:28.442Z,99770.88
2023-04-15T22:48:56.124Z,99761.94
2023-04-15T22:51:26.980Z,99766.25
2023-04-15T22:53:54.964Z,99764.25
2023-04-15T22:56:23.368Z,99770.88
2023-04-15T22:58:51.628Z,99769.53
2023-04-15T23:01:21.313Z,99771.34
2023-04-15T23:03:56.691Z,99780.81
2023-04-15T23:06:34.294Z,99773.34
2023-04-15T23:09:02.257Z,99773.88
2023-04-15T23:11:30.260Z,99783.72
2023-04-15T23:13:58.144Z,99790.69
2023-04-15T23:16:26.070Z,99785.41
2023-04-15T23:18:53.908Z,99783.72
2023-04-15T23:21:22.458Z,99783.72
2023-04-15T23:23:52.175Z,99781.59
2023-04-15T23:26:19.884Z,99788.50
2023-04-15T23:28:47.511Z,99791.97
2023-04-15T23:31:15.196Z,99792.00
2023-04-15T23:33:42.859Z,99796.91
2023-04-15T23:36:10.485Z,99795.78
2023-04-15T23:38:38.065Z,99791.31
2023-04-15T23:41:07.401Z,99800.84
2023-04-15T23:43:34.990Z,99798.22
2023-04-15T23:46:02.588Z,99802.31
2023-04-15T23:48:30.288Z,99808.09
2023-04-15T23:50:58.119Z,99816.41
2023-04-15T23:53:25.724Z,99816.13
2023-04-15T23:55:53.372Z,99825.03
2023-04-15T23:58:22.634Z,99827.31
